Terminal Aerodrome Forecast
Issued by NWS

Home | Current Version | Previous Version | Text Only | Print | Product List | Glossary On
Versions: 1 2 3 4 5 6 7 8 9 10 11 12 13 14 15 16 17
000
FTUS43 KPAH 301128
TAFCGI
TAF
KCGI 301128Z 3012/0112 12010KT 4SM -SHRA BR BKN005 OVC050
      TEMPO 3012/3014 2SM TSRA BR BKN015CB
     FM301400 15012G18KT P6SM SCT025 BKN150
     FM302200 18006KT P6SM SCT040 BKN250 PROB30 0100/0106 4SM TSRA
      BKN035CB
     FM010600 22003KT 4SM BR BKN007=

USA.gov is the U.S. government's official web portal to all federal, state and local government web resources and services.